Flight Track Log - Related Links

Times and Time Zones

All times are in EDT time to prevent confusion due to time zone crossing. See the FLG3435 flight status page for this flight to view local times or setup timezone preferences in your user account.

Time Position Orientation Groundspeed Altitude Reporting Facility
EDT Latitude Longitude Course Direction KTS MPH feet Rate Location/Type
Tue 06:57:37 PM 44.9167 -93.2667 282° West 182 209 2,500  Level Minneapolis TRACON
Tue 06:58:44 PM 44.9500 -93.3667 295° West 240 276 4,600 2,286 Climbing Minneapolis TRACON
Tue 06:59:00 PM 44.9563 -93.6716 281° West  Level FlightAware Approximate
Tue 07:00:00 PM 44.9832 -93.8270 287° West  Level FlightAware Approximate
Tue 07:00:04 PM 44.9631 -93.5017 278° West 274 315 8,100  Level Minneapolis Center
Tue 07:01:00 PM 45.0161 -93.9806 287° West  Level FlightAware Approximate
Tue 07:01:06 PM 44.9756 -93.6128 279° West 288 331 10,500  Level Minneapolis Center
Tue 07:02:00 PM 45.0388 -94.1377 282° West  Level FlightAware Approximate
Tue 07:02:08 PM 44.9897 -93.7369 279° West 325 374 12,100  Level Minneapolis Center
Tue 07:03:10 PM 45.0042 -93.8711 279° West 346 398 14,300 2,081 Climbing Minneapolis Center
Tue 07:04:12 PM 45.0203 -94.0097 279° West 359 413 16,400 1,887 Climbing Minneapolis Center
Tue 07:05:14 PM 45.0433 -94.1503 283° West 369 425 18,200 1,935 Climbing Minneapolis Center
Tue 07:06:16 PM 45.0694 -94.3244 282° West 376 433 20,400 1,790 Climbing Minneapolis Center
Tue 07:07:18 PM 45.0911 -94.4750 282° West 387 445 21,900 1,548 Climbing Minneapolis Center
Tue 07:08:20 PM 45.1072 -94.6442 278° West 401 461 23,600 1,488 Climbing Minneapolis Center
Tue 07:09:23 PM 45.1247 -94.8061 279° West 412 474 25,000 1,248 Climbing Minneapolis Center
Tue 07:10:25 PM 45.1403 -94.9692 278° West 418 481 26,200 1,210 Climbing Minneapolis Center
Tue 07:11:27 PM 45.1550 -95.1378 277° West 430 495 27,500 1,210 Climbing Minneapolis Center
Tue 07:12:29 PM 45.1714 -95.3078 278° West 435 501 28,700 1,113 Climbing Minneapolis Center
Tue 07:13:31 PM 45.1908 -95.5167 278° West 446 513 29,800 1,258 Climbing Minneapolis Center
Tue 07:14:33 PM 45.2172 -95.6872 282° West 447 514 31,300 1,258 Climbing Minneapolis Center
Tue 07:15:35 PM 45.2439 -95.8536 283° West 440 506 32,400 919 Climbing Minneapolis Center
Tue 07:16:37 PM 45.2714 -96.0217 283° West 439 505 33,200 919 Climbing Minneapolis Center
Tue 07:17:39 PM 45.2975 -96.1917 282° West 441 507 34,300 1,016 Climbing Minneapolis Center
Tue 07:18:41 PM 45.3289 -96.3942 283° West 440 506 35,300 823 Climbing Minneapolis Center
Tue 07:19:43 PM 45.3553 -96.5625 283° West 439 505 36,000 339 Climbing Minneapolis Center
Tue 07:20:45 PM 45.3808 -96.7331 282° West 442 509 36,000  Level Minneapolis Center
Tue 07:21:47 PM 45.4072 -96.9108 282° West 457 526 36,000  Level Minneapolis Center
Tue 07:22:49 PM 45.4328 -97.0886 282° West 460 529 36,000  Level Minneapolis Center
Tue 07:23:51 PM 45.4597 -97.2647 282° West 459 528 36,000  Level Minneapolis Center
Tue 07:24:54 PM 45.4897 -97.4786 281° West 460 529 36,000  Level Minneapolis Center
Tue 07:25:56 PM 45.5144 -97.6544 281° West 458 527 36,000  Level Minneapolis Center
Tue 07:26:58 PM 45.5389 -97.8258 282° West 450 518 36,000  Level Minneapolis Center
Tue 07:28:00 PM 45.5628 -97.9983 281° West 446 513 36,000  Level Minneapolis Center
Tue 07:29:02 PM 45.5867 -98.1711 281° West 445 512 36,000  Level Minneapolis Center
Tue 07:30:03 PM 45.6114 -98.3431 282° West 444 511 36,000  Level Minneapolis Center
Tue 07:31:06 PM 45.6386 -98.5492 281° West 442 509 36,000  Level Minneapolis Center
Tue 07:32:07 PM 45.6569 -98.6889 281° West 445 512 36,000  Level Minneapolis Center
Tue 07:33:10 PM 45.6844 -98.8997 281° West 449 517 36,000  Level Minneapolis Center
Tue 07:34:12 PM 45.7075 -99.0772 281° West 453 521 36,000  Level Minneapolis Center
Tue 07:35:14 PM 45.7303 -99.2547 280° West 456 525 36,000  Level Minneapolis Center
Tue 07:36:16 PM 45.7572 -99.4675 280° West 456 525 36,000  Level Minneapolis Center
Tue 07:37:30 PM 45.7792 -99.6458 280° West 457 526 36,000  Level Minneapolis Center
Tue 07:38:44 PM 45.8044 -99.8594 280° West 457 526 36,000  Level Minneapolis Center
Tue 07:39:47 PM 45.8294 -100.0728 280° West 456 525 36,000  Level Minneapolis Center
Tue 07:40:49 PM 45.8506 -100.2506 280° West 456 525 36,000  Level Minneapolis Center
Tue 07:41:51 PM 45.8761 -100.4675 280° West 462 532 36,000  Level Minneapolis Center
Tue 07:42:53 PM 45.8958 -100.6447 279° West 457 526 36,000  Level Minneapolis Center
Tue 07:43:55 PM 45.9167 -100.8242 280° West 456 525 36,000  Level Minneapolis Center
Tue 07:44:56 PM 45.9358 -101.0033 279° West 456 525 36,000  Level Minneapolis Center
Tue 07:45:58 PM 45.9553 -101.1825 279° West 456 525 36,000  Level Minneapolis Center
Tue 07:47:00 PM 45.9753 -101.3611 279° West 456 525 36,000  Level Minneapolis Center
Tue 07:48:03 PM 45.9978 -101.5750 279° West 452 520 36,000  Level Minneapolis Center
Tue 07:49:05 PM 46.0167 -101.7500 279° West 447 514 36,000  Level Minneapolis Center
Tue 07:50:07 PM 46.0361 -101.9250 279° West 445 512 36,000  Level Minneapolis Center
Tue 07:51:09 PM 46.0539 -102.0986 278° West 442 509 36,000  Level Minneapolis Center
Tue 07:52:11 PM 46.0711 -102.2725 278° West 440 506 36,000 97 Level Minneapolis Center
Tue 07:53:13 PM 46.0883 -102.4458 278° West 439 505 36,200 677 Climbing Minneapolis Center
Tue 07:54:15 PM 46.1081 -102.6561 278° West 442 509 37,400 823 Climbing Minneapolis Center
Tue 07:55:17 PM 46.1225 -102.8150 278° West 435 501 37,900 290 Climbing Minneapolis Center
Tue 07:56:19 PM 46.1394 -102.9875 278° West 434 499 38,000 48 Climbing Minneapolis Center
Tue 07:57:21 PM 46.1558 -103.1606 278° West 435 501 38,000  Level Minneapolis Center
Tue 07:58:35 PM 46.1700 -103.3367 277° West 439 505 38,000  Level Minneapolis Center
Tue 07:59:37 PM 46.1919 -103.5817 277° West 440 506 38,000  Level Minneapolis Center
Tue 08:00:40 PM 46.2067 -103.7561 277° West 438 504 38,000  Level Minneapolis Center
Tue 08:01:42 PM 46.2214 -103.9289 277° West 436 502 38,000  Level Minneapolis Center
Tue 08:02:44 PM 46.2353 -104.1011 277° West 434 499 38,000  Level Minneapolis Center
Tue 08:03:46 PM 46.2500 -104.2747 277° West 435 501 38,000  Level Minneapolis Center
Tue 08:04:48 PM 46.2633 -104.4464 276° West 433 498 38,000  Level Minneapolis Center
Tue 08:06:13 PM 46.2811 -104.7064 276° West 433 498 38,000  Level Salt Lake Center
Tue 08:07:15 PM 46.2939 -104.8792 276° West 434 499 38,000  Level Salt Lake Center
Tue 08:08:17 PM 46.3058 -105.0511 276° West 433 498 38,000  Level Salt Lake Center
Tue 08:09:19 PM 46.3208 -105.2586 276° West 433 498 38,000  Level Salt Lake Center
Tue 08:10:20 PM 46.3333 -105.4303 276° West 433 498 38,000  Level Salt Lake Center
Tue 08:11:22 PM 46.3464 -105.6047 276° West 435 501 38,000  Level Salt Lake Center
Tue 08:12:24 PM 46.3594 -105.7800 276° West 438 504 38,000  Level Salt Lake Center
Tue 08:13:26 PM 46.3725 -105.9531 276° West 436 502 38,000  Level Salt Lake Center
Tue 08:14:28 PM 46.3847 -106.1250 276° West 433 498 38,000  Level Salt Lake Center
Tue 08:15:29 PM 46.3975 -106.2978 276° West 433 498 38,000  Level Salt Lake Center
Tue 08:16:31 PM 46.4081 -106.4972 274° West 423 487 38,000  Level Salt Lake Center
Tue 08:17:33 PM 46.4186 -106.6667 275° West 422 486 38,000  Level Salt Lake Center
Tue 08:18:35 PM 46.4278 -106.8342 275° West 421 484 38,000  Level Salt Lake Center
Tue 08:19:36 PM 46.4375 -107.0017 275° West 420 483 38,000  Level Salt Lake Center
Tue 08:20:38 PM 46.4467 -107.1683 275° West 418 481 38,000  Level Salt Lake Center
Tue 08:21:40 PM 46.4561 -107.3364 275° West 420 483 38,000  Level Salt Lake Center
Tue 08:22:41 PM 46.4653 -107.5350 274° West 414 476 38,000  Level Salt Lake Center
Tue 08:23:43 PM 46.4742 -107.7053 274° West 422 486 38,000  Level Salt Lake Center
Tue 08:24:45 PM 46.4822 -107.8747 274° West 423 487 38,000  Level Salt Lake Center
Tue 08:25:46 PM 46.4906 -108.0447 274° West 424 488 38,000  Level Salt Lake Center
Tue 08:26:48 PM 46.4983 -108.2131 274° West 422 486 38,000  Level Salt Lake Center
Tue 08:27:50 PM 46.5058 -108.3847 274° West 427 491 38,000  Level Salt Lake Center
Tue 08:28:52 PM 46.5136 -108.5569 274° West 430 495 38,000  Level Salt Lake Center
Tue 08:29:53 PM 46.5225 -108.7617 274° West 426 490 38,000  Level Salt Lake Center
Tue 08:30:55 PM 46.5289 -108.9319 273° West 425 489 38,000  Level Salt Lake Center
Tue 08:31:57 PM 46.5358 -109.1011 273° West 422 486 38,000  Level Salt Lake Center
Tue 08:32:59 PM 46.5428 -109.2706 273° West 423 487 38,000  Level Salt Lake Center
Tue 08:34:00 PM 46.5483 -109.4422 273° West 428 493 38,000  Level Salt Lake Center
Tue 08:35:02 PM 46.5533 -109.6169 272° West 432 497 38,000  Level Salt Lake Center
Tue 08:36:04 PM 46.5606 -109.8242 273° West 430 495 38,000  Level Salt Lake Center
Tue 08:37:06 PM 46.5653 -109.9967 272° West 429 494 38,000  Level Salt Lake Center
Tue 08:38:07 PM 46.5886 -110.1672 281° West 430 495 38,000  Level Salt Lake Center
Tue 08:39:09 PM 46.6164 -110.3344 284° West 428 493 38,000  Level Salt Lake Center
Tue 08:40:11 PM 46.6464 -110.5006 285° West 427 491 38,000  Level Salt Lake Center
Tue 08:41:13 PM 46.6500 -110.6633 272° West 433 498 38,000  Level Salt Lake Center
Tue 08:42:14 PM 46.6439 -110.8728 268° West 432 497 38,000  Level Salt Lake Center
Tue 08:43:16 PM 46.6386 -111.0467 268° West 431 496 38,000  Level Salt Lake Center
Tue 08:44:18 PM 46.6331 -111.2208 267° West 430 495 38,000  Level Salt Lake Center
Tue 08:45:20 PM 46.6272 -111.3939 267° West 429 494 38,000  Level Salt Lake Center
Tue 08:46:21 PM 46.6214 -111.5675 267° West 428 493 38,000  Level Salt Lake Center
Tue 08:47:23 PM 46.6150 -111.7372 267° West 425 489 38,000  Level Salt Lake Center
Tue 08:48:25 PM 46.6078 -111.9053 266° West 418 481 38,000  Level Salt Lake Center
Tue 08:49:26 PM 46.6036 -112.0744 268° West 419 482 38,000 -49 Level Salt Lake Center
Tue 08:50:28 PM 46.6003 -112.2742 269° West 413 475 37,900  Descending Salt Lake Center
Tue 08:51:30 PM 46.5972 -112.4406 269° West 412 474 38,000 49 Climbing Salt Lake Center
Tue 08:52:31 PM 46.5936 -112.6100 268° West 418 481 38,000  Level Salt Lake Center
Tue 08:53:33 PM 46.5892 -112.7781 268° West 418 481 38,000  Level Salt Lake Center
Tue 08:54:34 PM 46.5864 -112.9481 269° West 421 484 38,000  Level Salt Lake Center
Tue 08:55:36 PM 46.5808 -113.1172 267° West 420 483 38,000  Level Salt Lake Center
Tue 08:56:38 PM 46.5769 -113.3058 268° West 423 487 38,000 -49 Level Salt Lake Center
Tue 08:57:39 PM 46.5717 -113.4758 267° West 422 486 37,900  Descending Salt Lake Center
Tue 08:58:41 PM 46.5656 -113.6467 267° West 424 488 38,000  Climbing Salt Lake Center
Tue 08:59:42 PM 46.5608 -113.8189 268° West 427 491 37,900  Descending Salt Lake Center
Tue 09:00:44 PM 46.5542 -113.9894 267° West 424 488 38,000 48 Climbing Salt Lake Center
Tue 09:01:46 PM 46.5478 -114.1633 267° West 421 484 38,000  Level Salt Lake Center
Tue 09:02:47 PM 46.5411 -114.3589 267° West 415 478 38,000  Level Salt Lake Center
Tue 09:03:49 PM 46.5347 -114.5244 267° West 411 473 38,000  Level Salt Lake Center
Tue 09:04:50 PM 46.5281 -114.6894 267° West 410 472 38,000  Level Salt Lake Center
Tue 09:05:52 PM 46.5219 -114.8556 267° West 413 475 38,000  Level Salt Lake Center
Tue 09:06:24 PM 46.5175 -114.9522 266° West 408 470 38,000  Level Seattle Center
Tue 09:07:25 PM 46.5106 -115.1039 266° West 410 472 38,000  Level Seattle Center
Tue 09:08:26 PM 46.5042 -115.2697 267° West 411 473 38,000  Level Seattle Center
Tue 09:09:27 PM 46.4964 -115.4394 266° West 418 481 38,000  Level Seattle Center
Tue 09:10:28 PM 46.4886 -115.6092 266° West 422 486 38,000  Level Seattle Center
Tue 09:11:29 PM 46.4794 -115.7789 266° West 422 486 38,000 -541 Level Seattle Center
Tue 09:12:30 PM 46.4708 -115.9506 266° West 424 488 36,900 -1,279 Descending Seattle Center
Tue 09:13:31 PM 46.4625 -116.1175 266° West 419 482 35,400 -1,623 Descending Seattle Center
Tue 09:14:32 PM 46.4514 -116.3153 265° West 410 472 33,600 -1,623 Descending Seattle Center
Tue 09:15:33 PM 46.4422 -116.4811 265° West 412 474 32,100 -1,475 Descending Seattle Center
Tue 09:16:34 PM 46.4331 -116.6464 265° West 410 472 30,600 -1,475 Descending Seattle Center
Tue 09:17:35 PM 46.4231 -116.8189 265° West 424 488 29,100 -1,475 Descending Seattle Center
Tue 09:18:36 PM 46.4125 -116.9889 265° West 424 488 27,600 -1,475 Descending Seattle Center
Tue 09:19:37 PM 46.4019 -117.1617 265° West 429 494 26,100 -1,721 Descending Seattle Center
Tue 09:20:38 PM 46.3917 -117.3311 265° West 424 488 24,100 -2,016 Descending Seattle Center
Tue 09:21:39 PM 46.3817 -117.4903 265° West 399 459 22,000 -1,918 Descending Seattle Center
Tue 09:22:40 PM 46.3717 -117.6350 264° West 380 437 20,200 -1,869 Descending Seattle Center
Tue 09:23:41 PM 46.3622 -117.7878 265° West 369 425 18,200 -1,721 Descending Seattle Center
Tue 09:24:42 PM 46.3511 -117.9325 264° West 363 418 16,700 -1,475 Descending Seattle Center
Tue 09:25:43 PM 46.3411 -118.0758 264° West 358 412 15,200 -1,525 Descending Seattle Center
Tue 09:26:44 PM 46.3308 -118.2131 264° West 343 395 13,600 -1,770 Descending Seattle Center
Tue 09:27:45 PM 46.3272 -118.3444 268° West 325 374 11,600 -1,770 Descending Seattle Center
Tue 09:28:46 PM 46.3400 -118.4908 277° West 297 342 10,000 -1,721 Descending Seattle Center
Tue 09:29:47 PM 46.3492 -118.5975 277° West 269 310 8,100 -1,869 Descending Seattle Center
Tue 09:30:48 PM 46.3586 -118.7083 277° West 275 316 6,200 -1,721 Descending Seattle Center
Tue 09:31:49 PM 46.3681 -118.8172 277° West 273 314 4,600 -1,180 Descending Seattle Center
Tue 09:32:50 PM 46.3717 -118.9131 273° West 259 298 3,800 -787 Descending Seattle Center

Login

Don't have an account? Register now (free) for customized features, flight alerts, and more!